Time;durP1;ratioP1;P1;durP2;ratioP2;P2;SDS_P1;SDS_P2;PMS_P1;PMS_P2;Temp;Humidity;BMP_temperature;BMP_pressure;BME280_temperature;BME280_humidity;BME280_pressure;Samples;Min_cycle;Max_cycle;Signal;HPM_P1;HPM_P2
2021/05/28 00:01:27;;;;;;;6.93;5.20;;;11.00;97.30;;;;;;4954819;28;20203;-91
2021/05/28 00:03:53;;;;;;;10.00;5.50;;;11.00;97.30;;;;;;4954116;29;20183;-91
2021/05/28 00:06:18;;;;;;;9.43;5.93;;;11.00;97.30;;;;;;4953578;29;20600;-91
2021/05/28 00:08:44;;;;;;;9.23;5.70;;;11.00;97.30;;;;;;4953529;29;20187;-90
2021/05/28 00:11:09;;;;;;;13.73;5.50;;;11.00;97.30;;;;;;4954099;29;20199;-91
2021/05/28 00:13:37;;;;;;;11.83;5.93;;;11.00;97.30;;;;;;4954326;29;20768;-90
2021/05/28 00:16:06;;;;;;;9.30;5.77;;;11.00;97.30;;;;;;4954175;29;20672;-91
2021/05/28 00:18:33;;;;;;;10.00;5.67;;;11.00;97.30;;;;;;4953942;29;20459;-90
2021/05/28 00:20:59;;;;;;;8.13;5.00;;;11.00;97.30;;;;;;4953905;29;21043;-91
2021/05/28 00:23:27;;;;;;;8.20;5.83;;;11.00;97.30;;;;;;4954487;29;20439;-90
2021/05/28 00:25:57;;;;;;;10.13;6.30;;;11.00;97.30;;;;;;4954770;29;20183;-90
2021/05/28 00:28:23;;;;;;;8.00;5.60;;;11.00;97.30;;;;;;4954940;29;20779;-91
2021/05/28 00:30:48;;;;;;;9.50;5.50;;;11.00;97.30;;;;;;4955379;29;20441;-91
2021/05/28 00:33:14;;;;;;;11.40;6.70;;;11.00;97.30;;;;;;4954671;29;20209;-91
2021/05/28 00:35:39;;;;;;;8.87;5.43;;;11.00;97.30;;;;;;4954499;29;20669;-91
2021/05/28 00:38:05;;;;;;;9.70;6.20;;;11.00;97.30;;;;;;4955768;29;20179;-91
2021/05/28 00:40:33;;;;;;;9.70;5.80;;;11.00;97.30;;;;;;4956305;29;20195;-91
2021/05/28 00:42:59;;;;;;;14.93;6.03;;;11.00;97.30;;;;;;4955459;29;20179;-90
2021/05/28 00:45:27;;;;;;;12.07;6.40;;;11.00;97.30;;;;;;4955543;29;20441;-91
2021/05/28 00:47:55;;;;;;;14.23;5.77;;;11.00;97.30;;;;;;4955878;29;20183;-91
2021/05/28 00:50:20;;;;;;;10.13;6.07;;;11.00;97.30;;;;;;4954877;29;20501;-91
2021/05/28 00:52:56;;;;;;;9.47;6.37;;;11.00;97.30;;;;;;4954474;29;20890;-91
2021/05/28 00:55:24;;;;;;;10.47;6.63;;;11.00;97.30;;;;;;4953828;29;20194;-91
2021/05/28 00:57:52;;;;;;;9.10;5.50;;;11.00;97.30;;;;;;4953922;29;20415;-91
2021/05/28 01:00:18;;;;;;;9.40;5.70;;;11.00;97.30;;;;;;4953386;29;20991;-92
2021/05/28 01:02:46;;;;;;;10.27;6.53;;;11.00;97.30;;;;;;4953194;29;20514;-90
2021/05/28 01:05:12;;;;;;;9.47;5.90;;;11.00;97.30;;;;;;4953485;29;20518;-90
2021/05/28 01:07:37;;;;;;;9.40;5.90;;;11.00;97.30;;;;;;4956086;28;20454;-90
2021/05/28 01:10:06;;;;;;;8.70;5.80;;;11.00;97.30;;;;;;4957415;29;20183;-91
2021/05/28 01:12:31;;;;;;;8.73;5.87;;;11.00;97.30;;;;;;4957666;29;20705;-91
2021/05/28 01:14:57;;;;;;;17.77;6.40;;;10.90;97.30;;;;;;4957443;29;20425;-91
2021/05/28 01:17:27;;;;;;;9.27;5.90;;;10.90;97.30;;;;;;4956455;29;20190;-91
2021/05/28 01:19:53;;;;;;;9.90;6.00;;;11.00;97.30;;;;;;4958120;29;20183;-91
2021/05/28 01:22:19;;;;;;;12.07;6.70;;;11.00;97.30;;;;;;4958316;29;20438;-91
2021/05/28 01:24:46;;;;;;;11.03;6.00;;;10.90;97.30;;;;;;4958127;29;20190;-91
2021/05/28 01:27:13;;;;;;;11.17;5.83;;;11.00;97.30;;;;;;4958739;29;20430;-91
2021/05/28 01:29:40;;;;;;;11.57;6.00;;;10.90;97.30;;;;;;4959351;29;20485;-91
2021/05/28 01:32:06;;;;;;;8.90;6.00;;;10.90;97.30;;;;;;4959676;29;20545;-91
2021/05/28 01:34:31;;;;;;;10.30;6.57;;;10.90;97.30;;;;;;4958825;29;20453;-91
2021/05/28 01:36:57;;;;;;;10.20;5.90;;;10.90;97.30;;;;;;4958885;29;20206;-91
2021/05/28 01:39:22;;;;;;;8.30;6.27;;;10.90;97.30;;;;;;4958471;29;20503;-91
2021/05/28 01:41:48;;;;;;;11.03;6.37;;;10.90;97.30;;;;;;4958397;29;20242;-91
2021/05/28 01:44:13;;;;;;;9.23;5.87;;;10.90;97.30;;;;;;4957631;28;20250;-90
2021/05/28 01:46:39;;;;;;;11.63;6.43;;;10.90;97.30;;;;;;4957651;29;20207;-91
2021/05/28 01:49:05;;;;;;;11.50;6.80;;;10.90;97.30;;;;;;4956579;29;20183;-90
2021/05/28 01:51:34;;;;;;;9.77;6.70;;;10.90;97.30;;;;;;4956184;29;20235;-89
2021/05/28 01:54:00;;;;;;;19.70;7.23;;;10.90;97.30;;;;;;4957296;29;20520;-90
2021/05/28 01:56:28;;;;;;;11.80;6.50;;;10.90;97.30;;;;;;4957011;29;20423;-90
2021/05/28 01:58:54;;;;;;;15.00;8.03;;;10.80;97.30;;;;;;4958855;29;20266;-89
2021/05/28 02:01:20;;;;;;;13.80;7.73;;;10.80;97.30;;;;;;4980357;28;20516;-88
2021/05/28 02:03:46;;;;;;;12.43;7.37;;;10.80;97.30;;;;;;4967502;28;20537;-89
2021/05/28 02:06:11;;;;;;;12.43;7.67;;;10.70;97.30;;;;;;4955350;29;20924;-89
2021/05/28 02:08:37;;;;;;;12.97;7.60;;;10.70;97.30;;;;;;4955326;29;20175;-88
2021/05/28 02:11:06;;;;;;;12.93;7.37;;;10.70;97.30;;;;;;4955677;28;20245;-89
2021/05/28 02:13:31;;;;;;;14.07;8.00;;;10.70;97.30;;;;;;4955270;29;20218;-90
2021/05/28 02:15:57;;;;;;;16.37;8.77;;;10.70;97.30;;;;;;4955020;29;20414;-89
2021/05/28 02:18:22;;;;;;;17.60;8.93;;;10.70;97.30;;;;;;4954939;28;20642;-89
2021/05/28 02:20:49;;;;;;;18.70;9.20;;;10.70;97.30;;;;;;4956055;28;20203;-89
2021/05/28 02:23:16;;;;;;;18.43;8.80;;;10.70;97.30;;;;;;4956946;29;20625;-89
2021/05/28 02:25:41;;;;;;;17.13;8.83;;;10.60;97.30;;;;;;4958816;28;20419;-89
2021/05/28 02:28:07;;;;;;;16.73;9.20;;;10.60;97.30;;;;;;4956053;29;20501;-88
2021/05/28 02:30:32;;;;;;;17.47;9.80;;;10.60;97.30;;;;;;4955753;28;20258;-89
2021/05/28 02:32:58;;;;;;;20.73;10.03;;;10.60;97.30;;;;;;4954936;29;20288;-89
2021/05/28 02:35:23;;;;;;;17.67;10.20;;;10.60;97.30;;;;;;4954214;29;20190;-89
2021/05/28 02:37:49;;;;;;;22.63;9.90;;;10.50;97.30;;;;;;4954018;29;20207;-89
2021/05/28 02:40:16;;;;;;;15.47;9.80;;;10.50;97.30;;;;;;4953928;28;20258;-88
2021/05/28 02:42:44;;;;;;;18.30;9.37;;;10.50;97.30;;;;;;4955154;28;20761;-89
2021/05/28 02:45:10;;;;;;;18.20;10.27;;;10.50;97.30;;;;;;4954062;29;20430;-89
2021/05/28 02:47:36;;;;;;;17.80;11.03;;;10.50;97.30;;;;;;4953673;29;20428;-89
2021/05/28 02:50:02;;;;;;;17.00;10.63;;;10.50;97.30;;;;;;4953613;29;20423;-89
2021/05/28 02:52:29;;;;;;;23.20;10.23;;;10.50;97.30;;;;;;4953884;28;20226;-89
2021/05/28 02:54:54;;;;;;;20.07;11.50;;;10.50;97.30;;;;;;4955161;28;20434;-89
2021/05/28 02:57:20;;;;;;;22.70;11.10;;;10.50;97.30;;;;;;4956244;29;20419;-89
2021/05/28 02:59:45;;;;;;;17.10;10.67;;;10.50;97.30;;;;;;4953953;29;20185;-89
2021/05/28 03:02:11;;;;;;;21.73;10.80;;;10.50;97.30;;;;;;4953827;28;20339;-89
2021/05/28 03:04:37;;;;;;;21.70;11.90;;;10.50;97.30;;;;;;4953381;29;20320;-89
2021/05/28 03:07:03;;;;;;;24.83;11.13;;;10.50;97.30;;;;;;4953390;28;20191;-89
2021/05/28 03:09:29;;;;;;;21.20;12.10;;;10.60;97.30;;;;;;4954084;29;20906;-89
2021/05/28 03:11:54;;;;;;;22.67;12.20;;;10.60;97.30;;;;;;4953251;28;20785;-89
2021/05/28 03:14:20;;;;;;;16.03;11.33;;;10.60;97.30;;;;;;4954902;28;20183;-89
2021/05/28 03:16:45;;;;;;;22.80;12.90;;;10.60;97.30;;;;;;4954464;29;20179;-90
2021/05/28 03:22:48;;;;;;;21.30;11.93;;;10.60;97.30;;;;;;4952995;28;20199;-90
2021/05/28 03:25:40;;;;;;;21.80;12.77;;;10.70;97.30;;;;;;4953931;29;20443;-90
2021/05/28 03:28:39;;;;;;;;;;;;;;;;;;;;;
2021/05/28 03:31:18;;;;;;;28.33;12.80;;;10.60;97.30;;;;;;4941375;28;20439;-90
2021/05/28 03:33:48;;;;;;;19.53;11.50;;;10.70;97.30;;;;;;4954678;29;20458;-90
2021/05/28 03:36:17;;;;;;;22.20;12.30;;;10.70;97.30;;;;;;4954575;29;20411;-90
2021/05/28 03:38:47;;;;;;;21.47;12.00;;;10.70;97.30;;;;;;4954083;29;20414;-90
2021/05/28 03:41:15;;;;;;;21.70;12.37;;;10.70;97.30;;;;;;4954300;28;20954;-89
2021/05/28 03:43:48;;;;;;;22.67;13.57;;;10.70;97.30;;;;;;4954880;28;20497;-90
2021/05/28 03:46:16;;;;;;;26.47;13.40;;;10.70;97.30;;;;;;4954861;29;20418;-90
2021/05/28 03:48:46;;;;;;;23.03;12.93;;;10.70;97.30;;;;;;4956047;28;20422;-90
2021/05/28 03:51:11;;;;;;;27.60;12.80;;;10.70;97.30;;;;;;4954388;28;20474;-89
2021/05/28 03:53:37;;;;;;;21.80;12.70;;;10.70;97.30;;;;;;4954633;29;20524;-90
2021/05/28 03:56:03;;;;;;;18.03;11.60;;;10.70;97.30;;;;;;4952453;29;20190;-90
2021/05/28 03:58:28;;;;;;;16.33;11.20;;;10.70;97.30;;;;;;4952647;29;20565;-89
2021/05/28 04:00:54;;;;;;;24.23;11.43;;;10.60;97.30;;;;;;4953653;28;20203;-90
2021/05/28 04:03:19;;;;;;;19.90;10.40;;;10.60;97.30;;;;;;4953262;29;20183;-89
2021/05/28 04:05:47;;;;;;;15.60;8.77;;;10.60;97.30;;;;;;4955113;29;20262;-89
2021/05/28 04:08:12;;;;;;;16.87;9.50;;;10.60;97.30;;;;;;4953901;29;20183;-90
2021/05/28 04:10:38;;;;;;;17.47;9.60;;;10.60;97.30;;;;;;4955349;29;20441;-89
2021/05/28 04:13:04;;;;;;;21.30;10.80;;;10.60;97.30;;;;;;4953614;29;20206;-90
2021/05/28 04:15:29;;;;;;;21.30;10.73;;;10.60;97.30;;;;;;4952923;29;20199;-89
2021/05/28 04:17:54;;;;;;;16.63;9.83;;;10.60;97.30;;;;;;4952455;29;20183;-90
2021/05/28 04:20:20;;;;;;;18.53;10.37;;;10.70;97.30;;;;;;4952235;29;20187;-89
2021/05/28 04:22:46;;;;;;;18.07;9.70;;;10.70;97.30;;;;;;4952003;29;20677;-89
2021/05/28 04:25:12;;;;;;;17.70;10.70;;;10.70;97.30;;;;;;4953292;29;20179;-90
2021/05/28 04:27:37;;;;;;;19.00;10.30;;;10.70;97.30;;;;;;4953119;29;20183;-89
2021/05/28 04:30:04;;;;;;;15.30;10.47;;;10.70;97.30;;;;;;4953390;29;20193;-89
2021/05/28 04:32:29;;;;;;;13.77;9.27;;;10.70;97.30;;;;;;4950506;29;20250;-89
2021/05/28 04:34:55;;;;;;;15.17;9.97;;;10.70;97.30;;;;;;4951310;29;20948;-89
2021/05/28 04:37:20;;;;;;;14.57;9.93;;;10.70;97.30;;;;;;4954191;29;20183;-89
2021/05/28 04:39:46;;;;;;;18.00;10.73;;;10.70;97.30;;;;;;4953661;29;20237;-89
2021/05/28 04:42:12;;;;;;;14.27;8.60;;;10.70;97.30;;;;;;4953405;28;20700;-89
2021/05/28 04:44:38;;;;;;;12.47;8.47;;;10.80;97.30;;;;;;4954239;29;20258;-89
2021/05/28 04:47:03;;;;;;;17.50;10.37;;;10.80;97.30;;;;;;4953920;29;20919;-89
2021/05/28 04:49:29;;;;;;;18.57;11.00;;;10.80;97.30;;;;;;4954017;29;20186;-89
2021/05/28 04:51:57;;;;;;;19.30;11.33;;;10.80;97.30;;;;;;4950281;23;20276;-90
2021/05/28 04:54:22;;;;;;;19.93;12.30;;;10.80;97.30;;;;;;4919857;29;20180;-89
2021/05/28 04:56:48;;;;;;;25.73;13.43;;;10.90;97.30;;;;;;4920020;29;20531;-89
2021/05/28 04:59:14;;;;;;;27.03;13.90;;;10.90;97.30;;;;;;4917322;29;20180;-89
2021/05/28 05:01:42;;;;;;;23.90;14.20;;;10.90;97.30;;;;;;4919029;29;20201;-88
2021/05/28 05:04:08;;;;;;;28.00;14.67;;;10.90;97.30;;;;;;4908389;29;20181;-89
2021/05/28 05:06:36;;;;;;;27.73;14.50;;;10.90;97.30;;;;;;4916283;29;20427;-90
2021/05/28 05:09:07;;;;;;;24.57;13.97;;;11.00;97.30;;;;;;4919390;29;20648;-90
2021/05/28 05:11:35;;;;;;;21.50;14.50;;;11.00;97.30;;;;;;4920371;29;20454;-89
2021/05/28 05:14:10;;;;;;;24.13;14.47;;;11.00;97.30;;;;;;4925688;29;20465;-90
2021/05/28 05:17:10;;;;;;;26.87;13.50;;;11.00;97.30;;;;;;4924492;29;20438;-91
2021/05/28 05:22:59;;;;;;;23.70;15.23;;;11.10;97.30;;;;;;4902246;29;20421;-89
2021/05/28 05:25:49;;;;;;;21.57;13.33;;;11.10;97.30;;;;;;4886771;29;20433;-89
2021/05/28 05:31:56;;;;;;;18.17;11.77;;;11.10;97.30;;;;;;4858497;29;20460;-88
2021/05/28 05:34:29;;;;;;;19.70;12.70;;;11.10;97.30;;;;;;4906161;29;20439;-88
2021/05/28 05:36:58;;;;;;;18.13;12.30;;;11.10;97.30;;;;;;4916050;29;20739;-89
2021/05/28 05:39:26;;;;;;;20.90;11.97;;;11.20;97.30;;;;;;4915826;29;20766;-90
2021/05/28 05:41:56;;;;;;;19.60;11.57;;;11.20;97.30;;;;;;4902363;29;20491;-90
2021/05/28 05:44:22;;;;;;;18.50;11.77;;;11.30;97.30;;;;;;4913075;29;20589;-89
2021/05/28 05:46:48;;;;;;;17.57;11.30;;;11.30;97.30;;;;;;4915525;29;20944;-89
2021/05/28 05:49:14;;;;;;;14.87;10.77;;;11.30;97.30;;;;;;4916024;29;20175;-90
2021/05/28 05:51:40;;;;;;;18.60;10.90;;;11.40;97.30;;;;;;4917452;29;20464;-89
2021/05/28 05:54:06;;;;;;;18.93;11.83;;;11.40;97.30;;;;;;4919920;29;20960;-89
2021/05/28 05:56:31;;;;;;;15.80;11.00;;;11.40;97.30;;;;;;4921512;29;20208;-89
2021/05/28 05:58:57;;;;;;;19.37;11.17;;;11.40;97.30;;;;;;4919220;29;20463;-89
2021/05/28 06:01:22;;;;;;;16.20;11.00;;;11.40;97.30;;;;;;4919651;29;20332;-88
2021/05/28 06:03:48;;;;;;;17.10;11.37;;;11.40;97.30;;;;;;4923959;29;20180;-88
2021/05/28 06:06:14;;;;;;;15.43;10.40;;;11.40;97.30;;;;;;4918074;29;20192;-90
2021/05/28 06:08:39;;;;;;;21.80;11.83;;;11.40;97.30;;;;;;4917260;29;20184;-89
2021/05/28 06:11:05;;;;;;;19.97;11.83;;;11.40;97.30;;;;;;4917645;29;20285;-89
2021/05/28 06:13:31;;;;;;;18.70;11.00;;;11.50;97.30;;;;;;4916827;29;20204;-91
2021/05/28 06:15:56;;;;;;;17.17;10.77;;;11.50;97.30;;;;;;4917682;29;20432;-89
2021/05/28 06:18:22;;;;;;;17.57;11.13;;;11.50;97.30;;;;;;4917753;29;20611;-89
2021/05/28 06:20:48;;;;;;;19.67;10.67;;;11.50;97.30;;;;;;4918091;29;20243;-89
2021/05/28 06:23:16;;;;;;;13.93;10.17;;;11.50;97.30;;;;;;4917754;29;20193;-88
2021/05/28 06:25:41;;;;;;;13.90;9.27;;;11.60;97.30;;;;;;4918498;29;20180;-89
2021/05/28 06:28:11;;;;;;;19.80;9.80;;;11.60;97.30;;;;;;4917806;29;20439;-89
2021/05/28 06:30:36;;;;;;;16.60;9.73;;;11.60;97.30;;;;;;4917361;29;20293;-89
2021/05/28 06:33:05;;;;;;;15.20;10.10;;;11.60;97.30;;;;;;4917682;29;20560;-90
2021/05/28 06:35:33;;;;;;;13.27;9.37;;;11.70;97.30;;;;;;4917974;29;20180;-90
2021/05/28 06:37:59;;;;;;;14.83;9.27;;;11.70;97.30;;;;;;4918989;29;20443;-90
2021/05/28 06:40:25;;;;;;;12.90;9.20;;;11.70;97.30;;;;;;4919546;29;20917;-89
2021/05/28 06:42:50;;;;;;;17.53;10.80;;;11.80;97.30;;;;;;4917895;29;20464;-89
2021/05/28 06:45:18;;;;;;;13.73;9.20;;;11.80;97.30;;;;;;4919832;29;20185;-90
2021/05/28 06:47:47;;;;;;;8.57;7.20;;;11.80;97.30;;;;;;4918513;29;20187;-89
2021/05/28 06:50:15;;;;;;;9.30;7.50;;;11.80;97.30;;;;;;4917693;29;20443;-89
2021/05/28 06:52:41;;;;;;;11.70;7.83;;;11.80;97.30;;;;;;4917225;29;20472;-89
2021/05/28 06:55:08;;;;;;;13.30;7.67;;;11.90;97.30;;;;;;4916106;29;20476;-90
2021/05/28 06:57:34;;;;;;;14.93;8.10;;;12.00;97.30;;;;;;4917356;29;20441;-90
2021/05/28 06:59:59;;;;;;;14.00;8.07;;;12.00;97.30;;;;;;4917368;29;20471;-89
2021/05/28 07:02:26;;;;;;;9.90;7.70;;;12.10;97.30;;;;;;4918310;29;20444;-90
2021/05/28 07:04:52;;;;;;;11.27;7.20;;;12.20;97.30;;;;;;4932385;29;20184;-89
2021/05/28 07:07:18;;;;;;;13.03;7.40;;;12.30;97.30;;;;;;4930056;29;20433;-89
2021/05/28 07:09:44;;;;;;;11.00;7.53;;;12.40;97.30;;;;;;4918554;29;20412;-91
2021/05/28 07:12:10;;;;;;;11.33;7.53;;;12.40;97.30;;;;;;4917177;29;20211;-90
2021/05/28 07:14:36;;;;;;;11.53;6.83;;;12.30;97.30;;;;;;4917246;29;20810;-89
2021/05/28 07:17:02;;;;;;;9.30;5.97;;;12.20;97.30;;;;;;4919324;29;20436;-90
2021/05/28 07:19:27;;;;;;;9.10;6.17;;;12.20;97.30;;;;;;4917776;29;20977;-88
2021/05/28 07:21:53;;;;;;;9.87;6.13;;;12.20;97.30;;;;;;4917926;29;20560;-88
2021/05/28 07:24:18;;;;;;;8.43;5.90;;;12.30;97.30;;;;;;4917683;29;20277;-89
2021/05/28 07:26:44;;;;;;;7.97;5.70;;;12.50;97.30;;;;;;4917011;29;20196;-89
2021/05/28 07:29:10;;;;;;;8.30;5.50;;;12.60;97.30;;;;;;4917402;29;20180;-89
2021/05/28 07:31:35;;;;;;;6.63;4.83;;;12.80;97.30;;;;;;4920404;29;20250;-90
2021/05/28 07:34:01;;;;;;;8.67;4.90;;;13.00;97.30;;;;;;4919271;29;20235;-89
2021/05/28 07:36:27;;;;;;;6.70;4.63;;;13.10;97.30;;;;;;4917801;29;20184;-88
2021/05/28 07:38:52;;;;;;;6.33;4.80;;;13.10;97.30;;;;;;4917693;29;20268;-90
2021/05/28 07:41:18;;;;;;;6.30;4.50;;;13.10;97.30;;;;;;4917155;29;20195;-90
2021/05/28 07:43:44;;;;;;;5.80;4.37;;;13.30;97.30;;;;;;4917443;29;20184;-91
2021/05/28 07:46:09;;;;;;;5.73;4.40;;;13.40;97.30;;;;;;4917012;29;20523;-89
2021/05/28 07:48:35;;;;;;;5.43;4.60;;;13.40;97.30;;;;;;4916617;29;20567;-89
2021/05/28 07:51:00;;;;;;;7.43;5.00;;;13.40;97.30;;;;;;4916263;29;20303;-90
2021/05/28 07:53:28;;;;;;;8.30;4.87;;;13.40;97.30;;;;;;4917453;29;20238;-90
2021/05/28 07:55:55;;;;;;;7.47;4.27;;;13.40;97.30;;;;;;4914696;29;20188;-89
2021/05/28 07:58:21;;;;;;;6.47;5.10;;;13.40;97.30;;;;;;4914351;29;20456;-90
2021/05/28 08:00:47;;;;;;;7.43;5.30;;;13.40;97.30;;;;;;4915329;29;20966;-90
2021/05/28 08:03:12;;;;;;;8.10;4.80;;;13.40;97.30;;;;;;4917823;29;20212;-90
2021/05/28 08:05:38;;;;;;;7.80;5.60;;;13.50;97.30;;;;;;4933554;29;20222;-90
2021/05/28 08:08:09;;;;;;;9.30;4.80;;;13.50;97.30;;;;;;4933954;29;20554;-90
2021/05/28 08:10:35;;;;;;;8.23;4.97;;;13.50;97.30;;;;;;4933049;29;20188;-90
2021/05/28 08:13:00;;;;;;;9.10;4.60;;;13.50;97.30;;;;;;4934128;29;20527;-90
2021/05/28 08:15:26;;;;;;;6.63;4.90;;;13.50;97.30;;;;;;4934206;29;20427;-89
2021/05/28 08:17:52;;;;;;;8.00;4.93;;;13.50;97.30;;;;;;4933873;29;20615;-90
2021/05/28 08:20:18;;;;;;;5.77;4.50;;;13.70;97.30;;;;;;4934242;29;20475;-90
2021/05/28 08:22:44;;;;;;;5.90;4.33;;;13.90;97.30;;;;;;4934291;29;20228;-89
2021/05/28 08:25:11;;;;;;;4.83;4.00;;;14.20;97.30;;;;;;4935172;29;20435;-91
2021/05/28 08:27:37;;;;;;;5.67;4.43;;;14.20;97.30;;;;;;4937989;29;20420;-91
2021/05/28 08:30:07;;;;;;;5.70;4.80;;;14.10;97.30;;;;;;4937707;29;20435;-90
2021/05/28 08:32:37;;;;;;;9.50;4.77;;;14.00;97.30;;;;;;4936663;29;20231;-90
2021/05/28 08:35:03;;;;;;;6.90;4.50;;;13.80;97.30;;;;;;4935179;29;20487;-90
2021/05/28 08:37:29;;;;;;;7.07;5.20;;;13.70;97.30;;;;;;4934331;29;20427;-90
2021/05/28 08:39:54;;;;;;;7.83;5.70;;;13.70;97.30;;;;;;4935756;29;20424;-89
2021/05/28 08:42:21;;;;;;;7.73;5.07;;;13.70;97.30;;;;;;4935073;29;20642;-91
2021/05/28 08:44:48;;;;;;;7.43;5.40;;;13.70;97.30;;;;;;4934633;29;20184;-90
2021/05/28 08:47:16;;;;;;;7.20;5.30;;;13.70;97.30;;;;;;4933888;29;20420;-90
2021/05/28 08:49:49;;;;;;;7.93;5.03;;;13.70;97.30;;;;;;4932765;29;20475;-91
2021/05/28 08:52:16;;;;;;;6.43;4.63;;;13.70;97.30;;;;;;4932881;29;20507;-90
2021/05/28 08:54:42;;;;;;;6.90;3.50;;;13.80;97.30;;;;;;4934688;29;20516;-90
2021/05/28 08:57:09;;;;;;;4.20;3.30;;;13.80;97.30;;;;;;4934743;29;20424;-91
2021/05/28 08:59:35;;;;;;;5.07;2.40;;;14.00;97.30;;;;;;4933423;29;20427;-89
2021/05/28 09:02:00;;;;;;;2.50;2.13;;;14.00;97.30;;;;;;4932569;29;20821;-90
2021/05/28 09:04:26;;;;;;;4.07;2.27;;;14.00;94.80;;;;;;4921955;29;20191;-91
2021/05/28 09:06:51;;;;;;;3.40;2.20;;;14.00;95.70;;;;;;4913863;29;20191;-92
2021/05/28 09:09:19;;;;;;;3.23;2.23;;;14.00;96.30;;;;;;4915329;29;20181;-90
2021/05/28 09:11:57;;;;;;;3.57;2.80;;;14.10;95.90;;;;;;4914779;29;20205;-91
2021/05/28 09:14:40;;;;;;;4.67;3.50;;;14.20;96.50;;;;;;4915181;29;20464;-90
2021/05/28 09:17:10;;;;;;;6.20;3.37;;;14.30;96.90;;;;;;4915234;29;20441;-91
2021/05/28 09:19:37;;;;;;;5.33;3.77;;;14.50;96.30;;;;;;4915217;29;20440;-91
2021/05/28 09:22:06;;;;;;;6.30;3.97;;;14.60;95.80;;;;;;4915130;29;20440;-91
2021/05/28 09:24:37;;;;;;;7.23;4.23;;;14.60;96.70;;;;;;4915083;29;20425;-91
2021/05/28 09:27:23;;;;;;;7.10;4.47;;;14.60;97.20;;;;;;4899691;29;20427;-90
2021/05/28 09:30:07;;;;;;;8.43;4.07;;;14.50;97.30;;;;;;4920098;29;20424;-92
2021/05/28 09:32:36;;;;;;;5.80;3.83;;;14.50;97.00;;;;;;4919034;29;20514;-91
2021/05/28 09:35:03;;;;;;;7.03;3.90;;;14.50;96.80;;;;;;4919039;29;20477;-91
2021/05/28 09:37:41;;;;;;;7.53;4.17;;;14.50;95.50;;;;;;4919506;29;20951;-90
2021/05/28 09:40:17;;;;;;;7.80;4.27;;;14.40;96.10;;;;;;4913593;29;20439;-90
2021/05/28 09:43:00;;;;;;;7.90;4.37;;;14.30;96.40;;;;;;4899684;29;20536;-90
2021/05/28 09:45:38;;;;;;;6.30;4.20;;;14.20;96.50;;;;;;4916514;29;20427;-91
2021/05/28 09:48:20;;;;;;;6.90;4.63;;;14.10;96.90;;;;;;4918861;29;20953;-91
2021/05/28 09:50:51;;;;;;;6.90;5.17;;;14.10;97.30;;;;;;4920665;29;20416;-90
2021/05/28 09:53:30;;;;;;;8.70;4.50;;;14.10;97.30;;;;;;4905400;29;20468;-91
2021/05/28 09:55:58;;;;;;;7.30;4.70;;;14.10;97.30;;;;;;4923186;29;20966;-90
2021/05/28 09:58:24;;;;;;;6.90;4.77;;;14.20;97.30;;;;;;4923110;29;20420;-90
2021/05/28 10:00:49;;;;;;;5.93;4.13;;;14.20;97.30;;;;;;4917131;29;20431;-92
2021/05/28 10:03:26;;;;;;;9.90;4.57;;;14.40;96.60;;;;;;4919252;29;20181;-91
2021/05/28 10:05:59;;;;;;;4.43;3.87;;;14.60;96.50;;;;;;4936625;29;21029;-90
2021/05/28 10:08:26;;;;;;;7.67;3.90;;;15.00;96.00;;;;;;4938928;29;20514;-90
2021/05/28 10:10:53;;;;;;;8.90;3.63;;;15.30;94.70;;;;;;4936580;29;20547;-90
2021/05/28 10:13:21;;;;;;;8.80;4.07;;;15.60;94.00;;;;;;4937587;29;20522;-91
2021/05/28 10:15:52;;;;;;;9.37;3.43;;;15.70;91.10;;;;;;4937020;29;20424;-90
2021/05/28 10:18:19;;;;;;;6.10;3.43;;;15.80;92.20;;;;;;4935223;29;20424;-90
2021/05/28 10:20:53;;;;;;;4.60;3.27;;;15.70;91.50;;;;;;4917698;29;20425;-90
2021/05/28 10:23:19;;;;;;;4.70;3.13;;;15.60;90.70;;;;;;4918788;29;20432;-89
2021/05/28 10:25:45;;;;;;;8.10;3.77;;;15.40;90.90;;;;;;4919553;29;20432;-90
2021/05/28 10:28:16;;;;;;;5.03;2.70;;;15.20;91.10;;;;;;4917917;29;20185;-90
2021/05/28 10:30:51;;;;;;;7.30;3.30;;;15.00;91.60;;;;;;4917500;29;20481;-90
2021/05/28 10:33:23;;;;;;;3.10;2.60;;;14.90;91.80;;;;;;4918494;29;20460;-91
2021/05/28 10:35:51;;;;;;;3.37;2.50;;;14.80;90.60;;;;;;4919032;29;20424;-91
2021/05/28 10:38:29;;;;;;;3.07;2.57;;;14.80;89.70;;;;;;4919562;29;20432;-89
2021/05/28 10:40:57;;;;;;;3.03;2.83;;;14.80;89.90;;;;;;4917544;29;20571;-91
2021/05/28 10:43:23;;;;;;;2.97;2.50;;;14.90;89.80;;;;;;4918615;29;20429;-90
2021/05/28 10:46:02;;;;;;;4.40;3.30;;;15.20;90.00;;;;;;4920101;29;20416;-91
2021/05/28 10:48:37;;;;;;;4.77;3.17;;;15.40;89.90;;;;;;4918217;29;20268;-92
2021/05/28 10:54:16;;;;;;;5.37;3.43;;;15.80;90.60;;;;;;4993527;23;20947;-81
2021/05/28 10:56:43;;;;;;;6.83;3.60;;;15.70;89.20;;;;;;4962439;28;20441;-86
2021/05/28 10:59:17;;;;;;;5.30;4.27;;;15.60;90.00;;;;;;4957368;29;20191;-85
2021/05/28 11:02:00;;;;;;;5.53;3.30;;;15.50;92.00;;;;;;4957025;28;20435;-85
2021/05/28 11:04:31;;;;;;;9.50;3.57;;;15.50;92.00;;;;;;4956001;29;20434;-84
2021/05/28 11:06:57;;;;;;;7.50;4.23;;;15.70;92.10;;;;;;4956119;29;20419;-85
2021/05/28 11:09:43;;;;;;;8.23;4.13;;;16.00;91.60;;;;;;4957262;29;20419;-86
2021/05/28 11:12:14;;;;;;;5.97;3.70;;;16.30;91.10;;;;;;4956834;28;20508;-81
2021/05/28 11:14:58;;;;;;;6.60;3.23;;;16.40;90.00;;;;;;4956065;29;20404;-86
2021/05/28 11:17:24;;;;;;;6.80;3.43;;;16.50;87.40;;;;;;4955787;29;20793;-83
2021/05/28 11:19:53;;;;;;;6.57;3.50;;;16.40;89.50;;;;;;4954699;29;20430;-87
2021/05/28 11:22:28;;;;;;;6.33;3.90;;;16.40;86.80;;;;;;4954499;28;20206;-86
2021/05/28 11:24:55;;;;;;;4.30;3.73;;;16.40;87.40;;;;;;4956911;29;20433;-84
2021/05/28 11:27:21;;;;;;;5.70;3.70;;;16.30;89.20;;;;;;4956427;29;20918;-82
2021/05/28 11:30:15;;;;;;;5.53;3.40;;;16.20;89.00;;;;;;4955415;29;20411;-84
2021/05/28 11:32:44;;;;;;;9.23;3.73;;;16.00;89.50;;;;;;4956018;29;20640;-83
2021/05/28 11:35:16;;;;;;;5.23;3.77;;;15.80;89.30;;;;;;4954764;29;20426;-82
2021/05/28 11:37:41;;;;;;;5.40;3.60;;;15.70;87.30;;;;;;4956687;28;20411;-87
2021/05/28 11:40:15;;;;;;;6.53;3.33;;;15.50;89.10;;;;;;4954249;29;20418;-86
2021/05/28 11:42:42;;;;;;;6.77;4.00;;;15.60;90.10;;;;;;4956398;28;20163;-89
2021/05/28 11:45:09;;;;;;;4.43;3.10;;;15.90;89.90;;;;;;4956195;29;20480;-81
2021/05/28 11:47:39;;;;;;;8.70;4.10;;;16.30;88.80;;;;;;4955081;29;20514;-86
2021/05/28 11:50:08;;;;;;;4.67;2.97;;;16.40;85.90;;;;;;4955724;28;20935;-80
2021/05/28 11:52:34;;;;;;;4.07;3.53;;;16.60;86.60;;;;;;4955436;28;20458;-87
2021/05/28 11:55:11;;;;;;;6.47;3.30;;;16.80;86.20;;;;;;4956202;28;20430;-87
2021/05/28 11:57:38;;;;;;;4.63;3.50;;;17.00;85.20;;;;;;4954102;28;20203;-88
2021/05/28 12:00:10;;;;;;;4.37;4.00;;;17.30;88.30;;;;;;4956779;28;20411;-81
2021/05/28 12:02:40;;;;;;;6.60;3.53;;;17.40;84.70;;;;;;4955562;28;20453;-84
2021/05/28 12:05:21;;;;;;;7.10;3.60;;;17.50;84.40;;;;;;4955362;29;20426;-83
2021/05/28 12:07:47;;;;;;;5.50;3.97;;;17.60;83.90;;;;;;4955168;29;20430;-86
2021/05/28 12:10:14;;;;;;;6.40;4.20;;;17.80;85.60;;;;;;4955619;29;20461;-85
2021/05/28 12:12:54;;;;;;;6.70;4.10;;;18.00;85.60;;;;;;4945118;28;20487;-79
2021/05/28 12:15:30;;;;;;;9.77;4.90;;;18.10;84.90;;;;;;4936580;29;20530;-81
2021/05/28 12:17:56;;;;;;;6.73;4.67;;;18.00;84.60;;;;;;4936567;29;20423;-78
2021/05/28 12:20:33;;;;;;;5.87;4.10;;;17.90;86.90;;;;;;4936113;29;20927;-80
2021/05/28 12:23:00;;;;;;;4.53;3.53;;;18.00;84.40;;;;;;4935956;29;21159;-79
2021/05/28 12:25:27;;;;;;;5.00;3.50;;;18.20;84.10;;;;;;4935756;29;20450;-79
2021/05/28 12:27:53;;;;;;;9.93;4.50;;;18.40;84.30;;;;;;4935702;29;20420;-83
2021/05/28 12:30:26;;;;;;;5.83;4.60;;;18.50;82.30;;;;;;4935705;29;20442;-85
2021/05/28 12:32:52;;;;;;;7.73;4.53;;;18.60;83.70;;;;;;4937077;29;20668;-83
2021/05/28 12:35:20;;;;;;;7.53;3.93;;;18.70;83.60;;;;;;4936758;29;20983;-86
2021/05/28 12:38:05;;;;;;;5.13;3.40;;;18.70;83.00;;;;;;4937530;29;20479;-87
2021/05/28 12:40:32;;;;;;;7.43;3.30;;;18.40;81.20;;;;;;4937107;29;20510;-87
2021/05/28 12:42:59;;;;;;;4.30;2.70;;;18.20;81.40;;;;;;4936834;29;20431;-85
2021/05/28 12:45:42;;;;;;;4.40;3.60;;;17.90;80.90;;;;;;4937569;29;20549;-84
2021/05/28 12:48:10;;;;;;;5.30;3.80;;;17.70;83.60;;;;;;4936892;29;20424;-88
2021/05/28 12:50:39;;;;;;;5.40;3.20;;;17.40;85.40;;;;;;4937708;29;20435;-83
2021/05/28 12:53:20;;;;;;;5.60;3.67;;;17.10;85.10;;;;;;4936363;29;20490;-87
2021/05/28 12:55:52;;;;;;;16.23;3.43;;;16.80;84.60;;;;;;4936663;29;20407;-85
2021/05/28 12:58:25;;;;;;;4.90;2.93;;;16.60;86.50;;;;;;4937025;29;20420;-88
2021/05/28 13:01:05;;;;;;;4.17;2.80;;;16.40;85.90;;;;;;4937585;29;20475;-85